Terminal Aerodrome Forecast
Issued by NWS

Home | Current Version | Previous Version | Text Only | Print | Product List | Glossary On
Versions: 1 2 3 4 5 6 7 8 9 10 11 12 13 14 15 16 17 18 19 20
000
FTUS46 KLOX 221300 AAA
TAFSBA
TAF AMD
KSBA 221322Z 2213/2312 VRB03KT 2SM BR OVC003
     FM221500 VRB03KT 4SM BR OVC006
     FM221700 16006KT P6SM SCT010
     FM222000 25010KT P6SM SKC
     FM230300 VRB03KT P6SM SKC
     FM230800 VRB03KT P6SM BKN007
     FM231100 11005KT 6SM BR OVC005=

USA.gov is the U.S. government's official web portal to all federal, state and local government web resources and services.